sensor_id;sensor_type;location;lat;lon;timestamp;P1;durP1;ratioP1;P2;durP2;ratioP2
39128;SDS011;24864;49.940;19.770;2023-12-20T00:00:56;6.55;;;3.20;;
39128;SDS011;24864;49.940;19.770;2023-12-20T00:03:39;4.45;;;2.88;;
39128;SDS011;24864;49.940;19.770;2023-12-20T00:06:09;5.30;;;2.83;;
39128;SDS011;24864;49.940;19.770;2023-12-20T00:08:37;5.00;;;2.75;;
39128;SDS011;24864;49.940;19.770;2023-12-20T00:11:06;4.25;;;2.60;;
39128;SDS011;24864;49.940;19.770;2023-12-20T00:13:35;4.28;;;2.58;;
39128;SDS011;24864;49.940;19.770;2023-12-20T00:16:04;3.75;;;2.67;;
39128;SDS011;24864;49.940;19.770;2023-12-20T00:18:33;4.20;;;2.72;;
39128;SDS011;24864;49.940;19.770;2023-12-20T00:21:02;3.63;;;2.50;;
39128;SDS011;24864;49.940;19.770;2023-12-20T00:23:30;4.28;;;2.75;;
39128;SDS011;24864;49.940;19.770;2023-12-20T00:25:59;7.10;;;3.03;;
39128;SDS011;24864;49.940;19.770;2023-12-20T00:28:28;4.20;;;3.03;;
39128;SDS011;24864;49.940;19.770;2023-12-20T00:30:58;4.22;;;2.75;;
39128;SDS011;24864;49.940;19.770;2023-12-20T00:33:26;4.50;;;2.92;;
39128;SDS011;24864;49.940;19.770;2023-12-20T00:35:55;7.65;;;3.17;;
39128;SDS011;24864;49.940;19.770;2023-12-20T00:38:23;4.90;;;2.65;;
39128;SDS011;24864;49.940;19.770;2023-12-20T00:40:52;3.58;;;2.58;;
39128;SDS011;24864;49.940;19.770;2023-12-20T00:43:20;4.10;;;2.55;;
39128;SDS011;24864;49.940;19.770;2023-12-20T00:45:49;4.47;;;2.45;;
39128;SDS011;24864;49.940;19.770;2023-12-20T00:48:19;3.72;;;2.55;;
39128;SDS011;24864;49.940;19.770;2023-12-20T00:50:47;4.35;;;2.70;;
39128;SDS011;24864;49.940;19.770;2023-12-20T00:53:15;4.75;;;2.80;;
39128;SDS011;24864;49.940;19.770;2023-12-20T00:55:44;3.33;;;2.33;;
39128;SDS011;24864;49.940;19.770;2023-12-20T00:58:13;4.28;;;3.00;;
39128;SDS011;24864;49.940;19.770;2023-12-20T01:00:42;4.00;;;2.50;;
39128;SDS011;24864;49.940;19.770;2023-12-20T01:03:10;4.05;;;2.80;;
39128;SDS011;24864;49.940;19.770;2023-12-20T01:05:41;3.35;;;2.67;;
39128;SDS011;24864;49.940;19.770;2023-12-20T01:08:09;5.78;;;3.10;;
39128;SDS011;24864;49.940;19.770;2023-12-20T01:10:37;4.38;;;2.72;;
39128;SDS011;24864;49.940;19.770;2023-12-20T01:13:07;4.20;;;2.58;;
39128;SDS011;24864;49.940;19.770;2023-12-20T01:15:36;4.63;;;2.63;;
39128;SDS011;24864;49.940;19.770;2023-12-20T01:18:04;4.93;;;3.10;;
39128;SDS011;24864;49.940;19.770;2023-12-20T01:20:33;4.68;;;3.10;;
39128;SDS011;24864;49.940;19.770;2023-12-20T01:23:03;3.55;;;2.58;;
39128;SDS011;24864;49.940;19.770;2023-12-20T01:25:31;4.57;;;2.90;;
39128;SDS011;24864;49.940;19.770;2023-12-20T01:28:00;5.88;;;3.78;;
39128;SDS011;24864;49.940;19.770;2023-12-20T01:30:30;4.38;;;3.15;;
39128;SDS011;24864;49.940;19.770;2023-12-20T01:32:59;4.80;;;3.03;;
39128;SDS011;24864;49.940;19.770;2023-12-20T01:35:28;5.97;;;3.30;;
39128;SDS011;24864;49.940;19.770;2023-12-20T01:37:57;4.28;;;2.80;;
39128;SDS011;24864;49.940;19.770;2023-12-20T01:40:27;4.03;;;2.97;;
39128;SDS011;24864;49.940;19.770;2023-12-20T01:42:58;3.78;;;2.90;;
39128;SDS011;24864;49.940;19.770;2023-12-20T01:45:28;3.60;;;2.67;;
39128;SDS011;24864;49.940;19.770;2023-12-20T01:47:57;4.50;;;3.05;;
39128;SDS011;24864;49.940;19.770;2023-12-20T01:50:25;4.90;;;3.05;;
39128;SDS011;24864;49.940;19.770;2023-12-20T01:52:55;4.35;;;3.28;;
39128;SDS011;24864;49.940;19.770;2023-12-20T01:55:24;3.67;;;2.90;;
39128;SDS011;24864;49.940;19.770;2023-12-20T01:57:55;4.28;;;3.25;;
39128;SDS011;24864;49.940;19.770;2023-12-20T02:06:15;5.65;;;3.40;;
39128;SDS011;24864;49.940;19.770;2023-12-20T02:08:44;5.72;;;3.83;;
39128;SDS011;24864;49.940;19.770;2023-12-20T02:11:14;3.90;;;3.33;;
39128;SDS011;24864;49.940;19.770;2023-12-20T02:13:42;6.57;;;3.75;;
39128;SDS011;24864;49.940;19.770;2023-12-20T02:16:11;4.57;;;3.45;;
39128;SDS011;24864;49.940;19.770;2023-12-20T02:18:39;4.05;;;3.00;;
39128;SDS011;24864;49.940;19.770;2023-12-20T02:21:09;5.38;;;3.35;;
39128;SDS011;24864;49.940;19.770;2023-12-20T02:23:39;6.05;;;3.03;;
39128;SDS011;24864;49.940;19.770;2023-12-20T02:26:07;5.45;;;3.53;;
39128;SDS011;24864;49.940;19.770;2023-12-20T02:28:36;4.85;;;3.13;;
39128;SDS011;24864;49.940;19.770;2023-12-20T02:31:04;4.25;;;3.05;;
39128;SDS011;24864;49.940;19.770;2023-12-20T02:33:33;5.95;;;4.10;;
39128;SDS011;24864;49.940;19.770;2023-12-20T02:36:01;4.20;;;2.95;;
39128;SDS011;24864;49.940;19.770;2023-12-20T02:38:30;9.15;;;3.30;;
39128;SDS011;24864;49.940;19.770;2023-12-20T02:40:59;4.80;;;3.25;;
39128;SDS011;24864;49.940;19.770;2023-12-20T02:43:28;4.30;;;3.05;;
39128;SDS011;24864;49.940;19.770;2023-12-20T02:45:56;5.95;;;3.08;;
39128;SDS011;24864;49.940;19.770;2023-12-20T02:48:25;6.95;;;2.90;;
39128;SDS011;24864;49.940;19.770;2023-12-20T02:50:53;3.53;;;2.63;;
39128;SDS011;24864;49.940;19.770;2023-12-20T02:53:22;4.53;;;3.20;;
39128;SDS011;24864;49.940;19.770;2023-12-20T02:55:51;4.53;;;3.13;;
39128;SDS011;24864;49.940;19.770;2023-12-20T02:58:21;3.80;;;3.13;;
39128;SDS011;24864;49.940;19.770;2023-12-20T03:00:49;4.00;;;3.25;;
39128;SDS011;24864;49.940;19.770;2023-12-20T03:03:19;4.45;;;3.05;;
39128;SDS011;24864;49.940;19.770;2023-12-20T03:05:47;3.85;;;2.38;;
39128;SDS011;24864;49.940;19.770;2023-12-20T03:08:16;4.20;;;2.88;;
39128;SDS011;24864;49.940;19.770;2023-12-20T03:10:44;3.85;;;2.75;;
39128;SDS011;24864;49.940;19.770;2023-12-20T03:13:13;5.10;;;3.00;;
39128;SDS011;24864;49.940;19.770;2023-12-20T03:15:42;4.95;;;2.78;;
39128;SDS011;24864;49.940;19.770;2023-12-20T03:18:11;3.88;;;2.78;;
39128;SDS011;24864;49.940;19.770;2023-12-20T03:20:39;3.35;;;2.70;;
39128;SDS011;24864;49.940;19.770;2023-12-20T03:23:08;4.47;;;2.83;;
39128;SDS011;24864;49.940;19.770;2023-12-20T03:25:36;3.83;;;2.83;;
39128;SDS011;24864;49.940;19.770;2023-12-20T03:28:05;6.35;;;2.78;;
39128;SDS011;24864;49.940;19.770;2023-12-20T03:30:34;5.65;;;3.08;;
39128;SDS011;24864;49.940;19.770;2023-12-20T03:33:04;5.40;;;2.70;;
39128;SDS011;24864;49.940;19.770;2023-12-20T03:35:32;6.03;;;3.10;;
39128;SDS011;24864;49.940;19.770;2023-12-20T03:38:01;3.88;;;2.65;;
39128;SDS011;24864;49.940;19.770;2023-12-20T03:40:29;4.57;;;2.70;;
39128;SDS011;24864;49.940;19.770;2023-12-20T03:42:58;4.50;;;2.70;;
39128;SDS011;24864;49.940;19.770;2023-12-20T03:45:26;4.15;;;3.05;;
39128;SDS011;24864;49.940;19.770;2023-12-20T03:47:55;3.50;;;2.50;;
39128;SDS011;24864;49.940;19.770;2023-12-20T03:50:25;4.65;;;2.90;;
39128;SDS011;24864;49.940;19.770;2023-12-20T03:52:54;5.32;;;2.58;;
39128;SDS011;24864;49.940;19.770;2023-12-20T03:55:22;4.03;;;2.67;;
39128;SDS011;24864;49.940;19.770;2023-12-20T03:57:51;3.83;;;3.38;;
39128;SDS011;24864;49.940;19.770;2023-12-20T04:00:20;4.80;;;3.00;;
39128;SDS011;24864;49.940;19.770;2023-12-20T04:02:49;5.05;;;3.55;;
39128;SDS011;24864;49.940;19.770;2023-12-20T04:05:17;5.45;;;2.80;;
39128;SDS011;24864;49.940;19.770;2023-12-20T04:07:48;5.55;;;3.05;;
39128;SDS011;24864;49.940;19.770;2023-12-20T04:10:17;4.07;;;2.92;;
39128;SDS011;24864;49.940;19.770;2023-12-20T04:12:46;6.95;;;2.88;;
39128;SDS011;24864;49.940;19.770;2023-12-20T04:15:14;4.20;;;2.90;;
39128;SDS011;24864;49.940;19.770;2023-12-20T04:17:43;4.30;;;3.05;;
39128;SDS011;24864;49.940;19.770;2023-12-20T04:20:12;5.10;;;3.50;;
39128;SDS011;24864;49.940;19.770;2023-12-20T04:22:41;3.63;;;2.85;;
39128;SDS011;24864;49.940;19.770;2023-12-20T04:25:11;3.47;;;2.65;;
39128;SDS011;24864;49.940;19.770;2023-12-20T04:27:40;3.83;;;2.67;;
39128;SDS011;24864;49.940;19.770;2023-12-20T04:30:09;3.08;;;2.75;;
39128;SDS011;24864;49.940;19.770;2023-12-20T04:32:38;4.78;;;3.35;;
39128;SDS011;24864;49.940;19.770;2023-12-20T04:35:06;4.63;;;2.83;;
39128;SDS011;24864;49.940;19.770;2023-12-20T04:37:36;3.78;;;2.85;;
39128;SDS011;24864;49.940;19.770;2023-12-20T04:40:04;5.78;;;3.30;;
39128;SDS011;24864;49.940;19.770;2023-12-20T04:42:36;5.15;;;3.42;;
39128;SDS011;24864;49.940;19.770;2023-12-20T04:45:05;6.55;;;3.30;;
39128;SDS011;24864;49.940;19.770;2023-12-20T04:47:34;7.70;;;3.05;;
39128;SDS011;24864;49.940;19.770;2023-12-20T04:50:02;8.50;;;4.35;;
39128;SDS011;24864;49.940;19.770;2023-12-20T04:52:32;7.75;;;4.68;;
39128;SDS011;24864;49.940;19.770;2023-12-20T04:55:00;9.00;;;5.65;;
39128;SDS011;24864;49.940;19.770;2023-12-20T04:57:29;7.07;;;5.30;;
39128;SDS011;24864;49.940;19.770;2023-12-20T04:59:59;9.23;;;4.90;;
39128;SDS011;24864;49.940;19.770;2023-12-20T05:02:28;9.20;;;5.65;;
39128;SDS011;24864;49.940;19.770;2023-12-20T05:04:56;8.20;;;5.65;;
39128;SDS011;24864;49.940;19.770;2023-12-20T05:07:25;10.52;;;5.80;;
39128;SDS011;24864;49.940;19.770;2023-12-20T05:09:53;8.82;;;6.03;;
39128;SDS011;24864;49.940;19.770;2023-12-20T05:12:22;12.15;;;6.45;;
39128;SDS011;24864;49.940;19.770;2023-12-20T05:14:51;9.75;;;6.03;;
39128;SDS011;24864;49.940;19.770;2023-12-20T05:17:21;11.32;;;6.45;;
39128;SDS011;24864;49.940;19.770;2023-12-20T05:19:49;10.82;;;6.28;;
39128;SDS011;24864;49.940;19.770;2023-12-20T05:22:18;8.32;;;5.43;;
39128;SDS011;24864;49.940;19.770;2023-12-20T05:24:47;8.50;;;5.80;;
39128;SDS011;24864;49.940;19.770;2023-12-20T05:27:15;10.15;;;6.10;;
39128;SDS011;24864;49.940;19.770;2023-12-20T05:29:44;8.40;;;5.45;;
39128;SDS011;24864;49.940;19.770;2023-12-20T05:32:12;10.38;;;6.15;;
39128;SDS011;24864;49.940;19.770;2023-12-20T05:34:42;10.25;;;6.40;;
39128;SDS011;24864;49.940;19.770;2023-12-20T05:37:11;11.27;;;7.30;;
39128;SDS011;24864;49.940;19.770;2023-12-20T05:39:39;11.55;;;7.35;;
39128;SDS011;24864;49.940;19.770;2023-12-20T05:42:08;11.55;;;7.18;;
39128;SDS011;24864;49.940;19.770;2023-12-20T05:44:36;11.05;;;7.28;;
39128;SDS011;24864;49.940;19.770;2023-12-20T05:47:04;11.32;;;6.90;;
39128;SDS011;24864;49.940;19.770;2023-12-20T05:49:33;14.00;;;8.35;;
39128;SDS011;24864;49.940;19.770;2023-12-20T05:52:03;12.80;;;8.55;;
39128;SDS011;24864;49.940;19.770;2023-12-20T05:54:32;14.15;;;8.65;;
39128;SDS011;24864;49.940;19.770;2023-12-20T05:57:01;11.00;;;7.93;;
39128;SDS011;24864;49.940;19.770;2023-12-20T05:59:29;15.35;;;8.75;;
39128;SDS011;24864;49.940;19.770;2023-12-20T06:01:58;11.85;;;8.13;;
39128;SDS011;24864;49.940;19.770;2023-12-20T06:04:26;14.95;;;8.95;;
39128;SDS011;24864;49.940;19.770;2023-12-20T06:06:55;16.40;;;9.43;;
39128;SDS011;24864;49.940;19.770;2023-12-20T06:09:24;23.05;;;8.30;;
39128;SDS011;24864;49.940;19.770;2023-12-20T06:11:57;18.40;;;9.32;;
39128;SDS011;24864;49.940;19.770;2023-12-20T06:14:26;32.72;;;9.63;;
39128;SDS011;24864;49.940;19.770;2023-12-20T06:16:54;15.50;;;8.95;;
39128;SDS011;24864;49.940;19.770;2023-12-20T06:19:23;13.02;;;8.90;;
39128;SDS011;24864;49.940;19.770;2023-12-20T06:21:51;14.95;;;9.05;;
39128;SDS011;24864;49.940;19.770;2023-12-20T06:24:20;15.85;;;10.55;;
39128;SDS011;24864;49.940;19.770;2023-12-20T06:26:50;15.13;;;10.75;;
39128;SDS011;24864;49.940;19.770;2023-12-20T06:29:18;14.52;;;10.00;;
39128;SDS011;24864;49.940;19.770;2023-12-20T06:31:47;18.08;;;11.57;;
39128;SDS011;24864;49.940;19.770;2023-12-20T06:34:15;23.35;;;11.18;;
39128;SDS011;24864;49.940;19.770;2023-12-20T06:36:45;20.92;;;11.40;;
39128;SDS011;24864;49.940;19.770;2023-12-20T06:39:13;17.63;;;11.95;;
39128;SDS011;24864;49.940;19.770;2023-12-20T06:41:41;15.93;;;10.52;;
39128;SDS011;24864;49.940;19.770;2023-12-20T06:44:11;17.30;;;11.25;;
39128;SDS011;24864;49.940;19.770;2023-12-20T06:46:40;18.80;;;11.52;;
39128;SDS011;24864;49.940;19.770;2023-12-20T06:49:08;19.05;;;11.05;;
39128;SDS011;24864;49.940;19.770;2023-12-20T06:51:37;20.42;;;12.35;;
39128;SDS011;24864;49.940;19.770;2023-12-20T06:54:05;23.35;;;13.32;;
39128;SDS011;24864;49.940;19.770;2023-12-20T06:56:34;16.63;;;11.82;;
39128;SDS011;24864;49.940;19.770;2023-12-20T06:59:02;23.45;;;12.00;;
39128;SDS011;24864;49.940;19.770;2023-12-20T07:01:32;27.27;;;13.40;;
39128;SDS011;24864;49.940;19.770;2023-12-20T07:04:01;27.02;;;12.85;;
39128;SDS011;24864;49.940;19.770;2023-12-20T07:06:30;29.25;;;16.77;;
39128;SDS011;24864;49.940;19.770;2023-12-20T07:09:01;19.70;;;12.02;;
39128;SDS011;24864;49.940;19.770;2023-12-20T07:11:30;27.45;;;15.98;;
39128;SDS011;24864;49.940;19.770;2023-12-20T07:13:59;21.73;;;14.00;;
39128;SDS011;24864;49.940;19.770;2023-12-20T07:16:28;30.27;;;16.58;;
39128;SDS011;24864;49.940;19.770;2023-12-20T07:21:45;26.40;;;16.50;;
39128;SDS011;24864;49.940;19.770;2023-12-20T07:24:13;23.40;;;15.65;;
39128;SDS011;24864;49.940;19.770;2023-12-20T07:26:42;23.00;;;13.73;;
39128;SDS011;24864;49.940;19.770;2023-12-20T07:29:10;24.52;;;16.13;;
39128;SDS011;24864;49.940;19.770;2023-12-20T07:31:38;26.50;;;16.13;;
39128;SDS011;24864;49.940;19.770;2023-12-20T07:34:07;22.48;;;15.63;;
39128;SDS011;24864;49.940;19.770;2023-12-20T07:36:37;24.92;;;15.32;;
39128;SDS011;24864;49.940;19.770;2023-12-20T07:39:05;22.90;;;15.13;;
39128;SDS011;24864;49.940;19.770;2023-12-20T07:41:33;28.80;;;16.20;;
39128;SDS011;24864;49.940;19.770;2023-12-20T07:44:01;26.50;;;13.00;;
39128;SDS011;24864;49.940;19.770;2023-12-20T07:46:31;23.50;;;15.52;;
39128;SDS011;24864;49.940;19.770;2023-12-20T07:48:59;23.40;;;15.00;;
39128;SDS011;24864;49.940;19.770;2023-12-20T07:51:28;26.08;;;15.00;;
39128;SDS011;24864;49.940;19.770;2023-12-20T07:53:58;27.10;;;15.45;;
39128;SDS011;24864;49.940;19.770;2023-12-20T07:56:26;23.45;;;14.65;;
39128;SDS011;24864;49.940;19.770;2023-12-20T07:58:54;30.92;;;17.65;;
39128;SDS011;24864;49.940;19.770;2023-12-20T08:01:26;24.58;;;13.38;;
39128;SDS011;24864;49.940;19.770;2023-12-20T08:03:54;32.22;;;16.23;;
39128;SDS011;24864;49.940;19.770;2023-12-20T08:06:24;26.92;;;16.38;;
39128;SDS011;24864;49.940;19.770;2023-12-20T08:08:52;28.73;;;17.08;;
39128;SDS011;24864;49.940;19.770;2023-12-20T08:11:32;33.38;;;19.05;;
39128;SDS011;24864;49.940;19.770;2023-12-20T08:14:01;33.05;;;19.65;;
39128;SDS011;24864;49.940;19.770;2023-12-20T08:16:37;33.13;;;18.50;;
39128;SDS011;24864;49.940;19.770;2023-12-20T08:19:06;32.50;;;19.45;;
39128;SDS011;24864;49.940;19.770;2023-12-20T08:21:35;31.90;;;19.50;;
39128;SDS011;24864;49.940;19.770;2023-12-20T08:24:05;26.45;;;13.15;;
39128;SDS011;24864;49.940;19.770;2023-12-20T08:26:35;27.50;;;18.15;;
39128;SDS011;24864;49.940;19.770;2023-12-20T08:29:03;25.63;;;17.25;;
39128;SDS011;24864;49.940;19.770;2023-12-20T08:31:32;30.38;;;18.60;;
39128;SDS011;24864;49.940;19.770;2023-12-20T08:34:00;25.70;;;16.95;;
39128;SDS011;24864;49.940;19.770;2023-12-20T08:36:29;21.35;;;14.02;;
39128;SDS011;24864;49.940;19.770;2023-12-20T08:38:57;25.60;;;16.38;;
39128;SDS011;24864;49.940;19.770;2023-12-20T08:41:27;26.30;;;16.38;;
39128;SDS011;24864;49.940;19.770;2023-12-20T08:43:57;24.33;;;15.57;;
39128;SDS011;24864;49.940;19.770;2023-12-20T08:46:25;23.30;;;14.32;;
39128;SDS011;24864;49.940;19.770;2023-12-20T08:49:08;21.38;;;14.90;;
39128;SDS011;24864;49.940;19.770;2023-12-20T08:52:18;25.88;;;16.52;;
39128;SDS011;24864;49.940;19.770;2023-12-20T08:54:53;24.42;;;15.10;;
39128;SDS011;24864;49.940;19.770;2023-12-20T08:57:27;25.65;;;14.07;;
39128;SDS011;24864;49.940;19.770;2023-12-20T09:02:58;21.20;;;13.85;;
39128;SDS011;24864;49.940;19.770;2023-12-20T09:05:36;23.48;;;14.85;;
39128;SDS011;24864;49.940;19.770;2023-12-20T09:11:38;25.27;;;14.20;;
39128;SDS011;24864;49.940;19.770;2023-12-20T09:14:06;20.77;;;14.80;;
39128;SDS011;24864;49.940;19.770;2023-12-20T09:16:36;20.20;;;13.25;;
39128;SDS011;24864;49.940;19.770;2023-12-20T09:19:04;19.35;;;12.60;;
39128;SDS011;24864;49.940;19.770;2023-12-20T09:21:33;20.58;;;10.93;;
39128;SDS011;24864;49.940;19.770;2023-12-20T09:24:01;24.50;;;13.25;;
39128;SDS011;24864;49.940;19.770;2023-12-20T09:26:30;15.05;;;10.63;;
39128;SDS011;24864;49.940;19.770;2023-12-20T09:28:58;13.25;;;9.85;;
39128;SDS011;24864;49.940;19.770;2023-12-20T09:31:26;14.13;;;10.13;;
39128;SDS011;24864;49.940;19.770;2023-12-20T09:33:56;14.68;;;8.52;;
39128;SDS011;24864;49.940;19.770;2023-12-20T09:36:25;13.73;;;8.98;;
39128;SDS011;24864;49.940;19.770;2023-12-20T09:38:53;13.85;;;9.93;;
39128;SDS011;24864;49.940;19.770;2023-12-20T09:41:22;18.33;;;10.80;;
39128;SDS011;24864;49.940;19.770;2023-12-20T09:43:51;14.38;;;7.85;;
39128;SDS011;24864;49.940;19.770;2023-12-20T09:46:20;12.40;;;8.30;;
39128;SDS011;24864;49.940;19.770;2023-12-20T09:48:52;13.00;;;8.07;;
39128;SDS011;24864;49.940;19.770;2023-12-20T09:51:22;13.05;;;7.40;;
39128;SDS011;24864;49.940;19.770;2023-12-20T09:53:51;16.88;;;11.60;;
39128;SDS011;24864;49.940;19.770;2023-12-20T09:56:35;10.20;;;6.47;;
39128;SDS011;24864;49.940;19.770;2023-12-20T09:59:04;8.98;;;6.75;;
39128;SDS011;24864;49.940;19.770;2023-12-20T10:01:32;9.93;;;6.63;;
39128;SDS011;24864;49.940;19.770;2023-12-20T10:04:02;9.05;;;5.30;;
39128;SDS011;24864;49.940;19.770;2023-12-20T10:06:41;9.05;;;6.03;;
39128;SDS011;24864;49.940;19.770;2023-12-20T10:09:10;11.38;;;6.82;;
39128;SDS011;24864;49.940;19.770;2023-12-20T10:11:39;8.68;;;5.68;;
39128;SDS011;24864;49.940;19.770;2023-12-20T10:14:07;7.88;;;5.03;;
39128;SDS011;24864;49.940;19.770;2023-12-20T10:16:36;6.68;;;4.03;;
39128;SDS011;24864;49.940;19.770;2023-12-20T10:19:04;7.30;;;5.72;;
39128;SDS011;24864;49.940;19.770;2023-12-20T10:21:34;8.55;;;5.65;;
39128;SDS011;24864;49.940;19.770;2023-12-20T10:24:04;7.68;;;5.15;;
39128;SDS011;24864;49.940;19.770;2023-12-20T10:26:33;9.43;;;4.65;;
39128;SDS011;24864;49.940;19.770;2023-12-20T10:29:01;6.43;;;4.55;;
39128;SDS011;24864;49.940;19.770;2023-12-20T10:31:31;5.85;;;3.97;;
39128;SDS011;24864;49.940;19.770;2023-12-20T10:34:01;8.02;;;4.43;;
39128;SDS011;24864;49.940;19.770;2023-12-20T10:36:31;6.30;;;3.67;;
39128;SDS011;24864;49.940;19.770;2023-12-20T10:39:00;8.50;;;5.72;;
39128;SDS011;24864;49.940;19.770;2023-12-20T10:41:32;8.10;;;5.18;;
39128;SDS011;24864;49.940;19.770;2023-12-20T10:44:02;5.50;;;4.00;;
39128;SDS011;24864;49.940;19.770;2023-12-20T10:46:32;5.72;;;4.13;;
39128;SDS011;24864;49.940;19.770;2023-12-20T10:49:02;5.78;;;3.80;;
39128;SDS011;24864;49.940;19.770;2023-12-20T10:51:30;4.20;;;3.50;;
39128;SDS011;24864;49.940;19.770;2023-12-20T10:54:00;7.55;;;4.00;;
39128;SDS011;24864;49.940;19.770;2023-12-20T10:56:29;4.38;;;3.65;;
39128;SDS011;24864;49.940;19.770;2023-12-20T10:59:02;5.13;;;3.40;;
39128;SDS011;24864;49.940;19.770;2023-12-20T11:01:32;5.68;;;3.90;;
39128;SDS011;24864;49.940;19.770;2023-12-20T11:04:01;6.18;;;4.40;;
39128;SDS011;24864;49.940;19.770;2023-12-20T11:06:38;5.65;;;3.70;;
39128;SDS011;24864;49.940;19.770;2023-12-20T11:09:12;8.05;;;4.70;;
39128;SDS011;24864;49.940;19.770;2023-12-20T11:11:52;4.97;;;3.92;;
39128;SDS011;24864;49.940;19.770;2023-12-20T11:14:27;5.85;;;4.13;;
39128;SDS011;24864;49.940;19.770;2023-12-20T11:17:06;5.20;;;4.03;;
39128;SDS011;24864;49.940;19.770;2023-12-20T11:19:38;5.78;;;4.18;;
39128;SDS011;24864;49.940;19.770;2023-12-20T11:22:29;5.25;;;4.07;;
39128;SDS011;24864;49.940;19.770;2023-12-20T11:25:02;6.50;;;4.25;;
39128;SDS011;24864;49.940;19.770;2023-12-20T11:27:33;5.90;;;4.03;;
39128;SDS011;24864;49.940;19.770;2023-12-20T11:30:02;5.70;;;4.32;;
39128;SDS011;24864;49.940;19.770;2023-12-20T11:32:34;4.43;;;3.37;;
39128;SDS011;24864;49.940;19.770;2023-12-20T11:35:16;6.80;;;4.72;;
39128;SDS011;24864;49.940;19.770;2023-12-20T11:37:47;6.30;;;4.30;;
39128;SDS011;24864;49.940;19.770;2023-12-20T11:40:16;6.80;;;4.15;;
39128;SDS011;24864;49.940;19.770;2023-12-20T11:42:51;7.53;;;4.93;;
39128;SDS011;24864;49.940;19.770;2023-12-20T11:45:20;6.75;;;4.72;;
39128;SDS011;24864;49.940;19.770;2023-12-20T11:47:57;8.70;;;5.30;;
39128;SDS011;24864;49.940;19.770;2023-12-20T11:50:40;7.32;;;4.88;;
39128;SDS011;24864;49.940;19.770;2023-12-20T11:53:29;5.15;;;4.20;;
39128;SDS011;24864;49.940;19.770;2023-12-20T11:56:31;7.78;;;4.15;;
39128;SDS011;24864;49.940;19.770;2023-12-20T12:05:56;7.75;;;3.38;;
39128;SDS011;24864;49.940;19.770;2023-12-20T12:08:54;8.18;;;5.38;;
39128;SDS011;24864;49.940;19.770;2023-12-20T12:11:54;10.02;;;5.80;;
39128;SDS011;24864;49.940;19.770;2023-12-20T12:15:14;7.15;;;4.80;;
39128;SDS011;24864;49.940;19.770;2023-12-20T12:22:58;8.63;;;5.47;;
39128;SDS011;24864;49.940;19.770;2023-12-20T12:25:29;7.55;;;4.88;;
39128;SDS011;24864;49.940;19.770;2023-12-20T12:28:44;7.15;;;5.13;;
39128;SDS011;24864;49.940;19.770;2023-12-20T12:31:20;7.50;;;5.53;;
39128;SDS011;24864;49.940;19.770;2023-12-20T12:33:54;7.80;;;6.13;;
39128;SDS011;24864;49.940;19.770;2023-12-20T12:36:34;7.20;;;4.90;;
39128;SDS011;24864;49.940;19.770;2023-12-20T12:41:48;5.50;;;4.35;;
39128;SDS011;24864;49.940;19.770;2023-12-20T12:44:16;6.10;;;4.25;;
39128;SDS011;24864;49.940;19.770;2023-12-20T12:47:04;5.72;;;4.15;;
39128;SDS011;24864;49.940;19.770;2023-12-20T12:49:50;5.78;;;3.63;;
39128;SDS011;24864;49.940;19.770;2023-12-20T12:53:04;5.82;;;4.25;;
39128;SDS011;24864;49.940;19.770;2023-12-20T12:56:16;5.43;;;4.20;;
39128;SDS011;24864;49.940;19.770;2023-12-20T12:58:47;8.90;;;5.20;;
39128;SDS011;24864;49.940;19.770;2023-12-20T13:01:32;6.28;;;4.63;;
39128;SDS011;24864;49.940;19.770;2023-12-20T13:04:38;7.65;;;4.95;;
39128;SDS011;24864;49.940;19.770;2023-12-20T13:07:28;6.07;;;4.15;;
39128;SDS011;24864;49.940;19.770;2023-12-20T13:09:57;6.95;;;4.80;;
39128;SDS011;24864;49.940;19.770;2023-12-20T13:12:27;7.95;;;4.80;;
39128;SDS011;24864;49.940;19.770;2023-12-20T13:14:55;7.22;;;5.35;;
39128;SDS011;24864;49.940;19.770;2023-12-20T13:17:24;7.65;;;5.68;;
39128;SDS011;24864;49.940;19.770;2023-12-20T13:19:55;6.88;;;4.00;;
39128;SDS011;24864;49.940;19.770;2023-12-20T13:22:24;7.85;;;5.18;;
39128;SDS011;24864;49.940;19.770;2023-12-20T13:24:54;7.53;;;4.60;;
39128;SDS011;24864;49.940;19.770;2023-12-20T13:27:22;4.32;;;3.65;;
39128;SDS011;24864;49.940;19.770;2023-12-20T13:29:52;6.65;;;3.80;;
39128;SDS011;24864;49.940;19.770;2023-12-20T13:32:21;6.05;;;3.85;;
39128;SDS011;24864;49.940;19.770;2023-12-20T13:34:49;6.70;;;4.47;;
39128;SDS011;24864;49.940;19.770;2023-12-20T13:37:18;4.65;;;3.90;;
39128;SDS011;24864;49.940;19.770;2023-12-20T13:39:46;6.57;;;4.35;;
39128;SDS011;24864;49.940;19.770;2023-12-20T13:42:15;6.88;;;4.60;;
39128;SDS011;24864;49.940;19.770;2023-12-20T13:44:43;7.32;;;4.25;;
39128;SDS011;24864;49.940;19.770;2023-12-20T13:47:13;6.20;;;3.38;;
39128;SDS011;24864;49.940;19.770;2023-12-20T13:49:41;6.35;;;4.28;;
39128;SDS011;24864;49.940;19.770;2023-12-20T13:52:09;6.13;;;3.80;;
39128;SDS011;24864;49.940;19.770;2023-12-20T13:54:38;5.72;;;3.65;;
39128;SDS011;24864;49.940;19.770;2023-12-20T13:57:08;4.80;;;2.70;;
39128;SDS011;24864;49.940;19.770;2023-12-20T13:59:52;5.13;;;3.08;;
39128;SDS011;24864;49.940;19.770;2023-12-20T14:02:22;4.07;;;3.30;;
39128;SDS011;24864;49.940;19.770;2023-12-20T14:04:50;6.05;;;3.85;;
39128;SDS011;24864;49.940;19.770;2023-12-20T14:07:18;7.38;;;3.83;;
39128;SDS011;24864;49.940;19.770;2023-12-20T14:09:47;6.40;;;3.88;;
39128;SDS011;24864;49.940;19.770;2023-12-20T14:12:16;5.53;;;3.42;;
39128;SDS011;24864;49.940;19.770;2023-12-20T14:14:44;4.68;;;3.22;;
39128;SDS011;24864;49.940;19.770;2023-12-20T14:17:13;5.65;;;3.55;;
39128;SDS011;24864;49.940;19.770;2023-12-20T14:19:42;6.03;;;3.38;;
39128;SDS011;24864;49.940;19.770;2023-12-20T14:22:11;8.23;;;4.00;;
39128;SDS011;24864;49.940;19.770;2023-12-20T14:27:12;6.22;;;3.47;;
39128;SDS011;24864;49.940;19.770;2023-12-20T14:29:57;6.43;;;4.10;;
39128;SDS011;24864;49.940;19.770;2023-12-20T14:32:26;6.93;;;4.47;;
39128;SDS011;24864;49.940;19.770;2023-12-20T14:35:28;9.95;;;4.95;;
39128;SDS011;24864;49.940;19.770;2023-12-20T14:37:58;8.00;;;5.60;;
39128;SDS011;24864;49.940;19.770;2023-12-20T14:40:58;7.10;;;5.43;;
39128;SDS011;24864;49.940;19.770;2023-12-20T14:43:55;7.45;;;5.90;;
39128;SDS011;24864;49.940;19.770;2023-12-20T14:46:52;10.10;;;5.82;;
39128;SDS011;24864;49.940;19.770;2023-12-20T14:49:36;7.30;;;4.97;;
39128;SDS011;24864;49.940;19.770;2023-12-20T14:53:15;7.03;;;4.10;;
39128;SDS011;24864;49.940;19.770;2023-12-20T14:55:49;6.68;;;4.03;;
39128;SDS011;24864;49.940;19.770;2023-12-20T14:58:18;7.22;;;4.85;;
39128;SDS011;24864;49.940;19.770;2023-12-20T15:00:46;8.18;;;5.53;;
39128;SDS011;24864;49.940;19.770;2023-12-20T15:03:15;8.95;;;5.85;;
39128;SDS011;24864;49.940;19.770;2023-12-20T15:05:44;6.82;;;5.40;;
39128;SDS011;24864;49.940;19.770;2023-12-20T15:08:19;8.73;;;6.10;;
39128;SDS011;24864;49.940;19.770;2023-12-20T15:10:48;10.18;;;6.28;;
39128;SDS011;24864;49.940;19.770;2023-12-20T15:13:17;9.70;;;5.75;;
39128;SDS011;24864;49.940;19.770;2023-12-20T15:15:46;12.18;;;6.65;;
39128;SDS011;24864;49.940;19.770;2023-12-20T15:18:14;7.68;;;4.72;;
39128;SDS011;24864;49.940;19.770;2023-12-20T15:20:42;4.95;;;3.42;;
39128;SDS011;24864;49.940;19.770;2023-12-20T15:23:12;6.22;;;4.00;;
39128;SDS011;24864;49.940;19.770;2023-12-20T15:25:41;7.05;;;3.92;;